臺北飛航情報區 - 掃描席(區管/近場)

METAR RCTP 230530Z 24015KT 9999 FEW022 31/26 Q1008 NOSIG RMK A2979=

站台狀態:Online
最後更新:2019-04-23 13:45:02